Time;durP1;ratioP1;P1;durP2;ratioP2;P2;SDS_P1;SDS_P2;PMS_P1;PMS_P2;Temp;Humidity;BMP_temperature;BMP_pressure;BME280_temperature;BME280_humidity;BME280_pressure;Samples;Min_cycle;Max_cycle;Signal;HPM_P1;HPM_P2
2022/01/27 00:07:37;;;;;;;51.23;24.67;;;3.10;99.90;;;;;;4919749;29;20528;-90
2022/01/27 00:12:36;;;;;;;52.90;26.13;;;3.10;99.90;;;;;;4919496;29;20250;-90
2022/01/27 00:15:09;;;;;;;50.53;23.90;;;3.10;99.90;;;;;;4918414;29;20182;-90
2022/01/27 00:24:43;;;;;;;46.80;23.23;;;3.10;99.90;;;;;;4900121;29;20231;-90
2022/01/27 00:27:10;;;;;;;45.97;22.80;;;3.20;99.90;;;;;;4899112;29;20285;-89
2022/01/27 00:29:35;;;;;;;46.53;22.70;;;3.20;99.90;;;;;;4899372;29;20211;-91
2022/01/27 00:32:02;;;;;;;43.67;22.43;;;3.20;99.90;;;;;;4898871;29;20215;-90
2022/01/27 00:37:00;;;;;;;40.50;20.83;;;3.20;99.90;;;;;;4901572;29;20234;-96
2022/01/27 00:39:29;;;;;;;42.33;21.40;;;3.20;99.90;;;;;;4903503;29;20304;-95
2022/01/27 00:42:01;;;;;;;38.87;19.37;;;3.20;99.90;;;;;;4903846;29;20180;-95
2022/01/27 00:44:29;;;;;;;34.03;19.03;;;3.20;99.90;;;;;;4903990;29;20179;-95
2022/01/27 00:46:55;;;;;;;38.20;18.43;;;3.20;99.90;;;;;;4903472;29;20179;-94
2022/01/27 00:49:25;;;;;;;34.13;18.87;;;3.20;99.90;;;;;;4903143;29;20221;-94
2022/01/27 00:51:54;;;;;;;34.47;17.83;;;3.30;99.90;;;;;;4903744;29;20239;-95
2022/01/27 00:54:24;;;;;;;34.90;18.47;;;3.30;99.90;;;;;;4903187;29;20217;-94
2022/01/27 00:57:06;;;;;;;34.10;18.50;;;3.30;99.90;;;;;;4903750;29;20175;-94
2022/01/27 00:59:47;;;;;;;32.27;17.73;;;3.30;99.90;;;;;;4904408;29;20240;-95
2022/01/27 01:02:24;;;;;;;28.17;16.53;;;3.30;99.90;;;;;;4903815;29;20206;-95
2022/01/27 01:09:12;;;;;;;31.40;15.80;;;3.30;99.90;;;;;;4885067;29;20303;-95
2022/01/27 01:16:05;;;;;;;25.70;15.07;;;3.40;99.90;;;;;;4908451;29;20163;-95
2022/01/27 01:34:58;;;;;;;27.10;15.23;;;3.40;99.90;;;;;;4907548;29;20167;-94
2022/01/27 01:37:28;;;;;;;23.87;14.90;;;3.40;99.90;;;;;;4906255;29;20207;-95
2022/01/27 01:39:55;;;;;;;25.47;14.17;;;3.40;99.90;;;;;;4905641;29;20175;-95
2022/01/27 01:42:22;;;;;;;25.57;14.27;;;3.40;99.90;;;;;;4907879;29;20183;-95
2022/01/27 01:44:49;;;;;;;25.87;14.90;;;3.50;99.90;;;;;;4905982;29;20180;-95
2022/01/27 01:47:20;;;;;;;25.80;13.93;;;3.50;99.90;;;;;;4906705;29;20199;-95
2022/01/27 01:49:59;;;;;;;25.23;13.93;;;3.50;99.90;;;;;;4906925;29;20247;-95
2022/01/27 01:52:31;;;;;;;21.83;13.77;;;3.50;99.90;;;;;;4906499;29;20203;-95
2022/01/27 01:54:57;;;;;;;22.63;13.10;;;3.50;99.90;;;;;;4905985;29;20640;-95
2022/01/27 01:57:30;;;;;;;24.93;14.33;;;3.50;99.90;;;;;;4906363;29;20270;-94
2022/01/27 01:59:57;;;;;;;25.80;15.20;;;3.50;99.90;;;;;;4906116;29;20171;-94
2022/01/27 02:02:23;;;;;;;23.13;14.20;;;3.50;99.90;;;;;;4907049;29;20179;-95
2022/01/27 02:04:49;;;;;;;23.17;14.00;;;3.40;99.90;;;;;;4906683;29;20176;-94
2022/01/27 02:18:07;;;;;;;25.00;14.97;;;3.50;99.90;;;;;;4908309;29;20283;-95
2022/01/27 02:20:51;;;;;;;23.50;14.27;;;3.60;99.90;;;;;;4905423;29;20240;-96
2022/01/27 02:23:22;;;;;;;27.27;14.73;;;3.60;99.90;;;;;;4905735;29;20171;-94
2022/01/27 02:25:48;;;;;;;22.50;14.37;;;3.60;99.90;;;;;;4905673;29;20647;-94
2022/01/27 02:28:16;;;;;;;24.50;14.63;;;3.50;99.90;;;;;;4906718;29;20207;-96
2022/01/27 02:30:54;;;;;;;23.83;14.00;;;3.50;99.90;;;;;;4906267;29;20639;-95
2022/01/27 02:33:32;;;;;;;24.50;15.10;;;3.50;99.90;;;;;;4905292;29;20198;-94
2022/01/27 02:36:04;;;;;;;24.53;13.70;;;3.50;99.90;;;;;;4905439;29;20593;-94
2022/01/27 02:38:30;;;;;;;24.87;14.73;;;3.50;99.90;;;;;;4905224;29;20232;-95
2022/01/27 02:41:03;;;;;;;27.20;15.23;;;3.60;99.90;;;;;;4905637;29;20179;-95
2022/01/27 02:43:30;;;;;;;24.93;14.40;;;3.50;99.90;;;;;;4907112;29;20191;-94
2022/01/27 02:46:09;;;;;;;23.87;14.27;;;3.60;99.90;;;;;;4906710;29;20183;-95
2022/01/27 02:48:39;;;;;;;23.03;14.07;;;3.60;99.90;;;;;;4906783;29;20213;-95
2022/01/27 02:51:07;;;;;;;23.00;14.23;;;3.60;99.90;;;;;;4905735;29;20178;-94
2022/01/27 02:53:33;;;;;;;25.53;14.93;;;3.60;99.90;;;;;;4906443;29;20237;-96
2022/01/27 02:56:05;;;;;;;24.63;14.33;;;3.60;99.90;;;;;;4905586;29;20163;-94
2022/01/27 02:58:33;;;;;;;23.43;14.80;;;3.60;99.90;;;;;;4906153;29;20608;-96
2022/01/27 03:01:00;;;;;;;23.53;15.43;;;3.50;99.90;;;;;;4906869;29;20187;-94
2022/01/27 03:03:27;;;;;;;24.93;15.63;;;3.50;99.90;;;;;;4906193;29;20179;-94
2022/01/27 03:05:53;;;;;;;25.60;15.70;;;3.60;99.90;;;;;;4906485;29;20187;-95
2022/01/27 03:08:19;;;;;;;26.20;16.53;;;3.60;99.90;;;;;;4905645;29;20227;-94
2022/01/27 03:10:55;;;;;;;25.03;16.83;;;3.50;99.90;;;;;;4905550;29;20171;-93
2022/01/27 03:13:20;;;;;;;26.80;16.47;;;3.60;99.90;;;;;;4905538;29;20199;-95
2022/01/27 03:15:58;;;;;;;27.23;17.23;;;3.50;99.90;;;;;;4906123;29;20259;-94
2022/01/27 03:18:32;;;;;;;33.13;18.53;;;3.50;99.90;;;;;;4905747;29;20298;-94
2022/01/27 03:21:03;;;;;;;34.90;18.80;;;3.50;99.90;;;;;;4906328;29;20197;-95
2022/01/27 03:23:29;;;;;;;32.13;19.87;;;3.50;99.90;;;;;;4905393;29;20254;-94
2022/01/27 03:26:01;;;;;;;33.87;20.67;;;3.50;99.90;;;;;;4905466;29;20600;-94
2022/01/27 03:28:29;;;;;;;33.70;21.27;;;3.50;99.90;;;;;;4905326;29;20355;-95
2022/01/27 03:30:59;;;;;;;33.87;20.97;;;3.50;99.90;;;;;;4904591;29;20195;-94
2022/01/27 03:33:25;;;;;;;38.13;22.77;;;3.50;99.90;;;;;;4904754;29;20235;-94
2022/01/27 03:35:56;;;;;;;37.20;22.30;;;3.50;99.90;;;;;;4905301;29;20294;-93
2022/01/27 03:38:29;;;;;;;40.80;23.50;;;3.50;99.90;;;;;;4904301;29;20195;-95
2022/01/27 03:40:57;;;;;;;40.60;23.93;;;3.50;99.90;;;;;;4905917;29;20175;-94
2022/01/27 03:43:25;;;;;;;39.93;23.30;;;3.50;99.90;;;;;;4905088;29;20203;-95
2022/01/27 03:46:01;;;;;;;38.93;24.63;;;3.50;99.90;;;;;;4904671;29;20231;-94
2022/01/27 03:48:28;;;;;;;41.60;24.13;;;3.50;99.90;;;;;;4904920;29;20238;-95
2022/01/27 03:50:55;;;;;;;40.70;25.33;;;3.50;99.90;;;;;;4904815;29;20178;-96
2022/01/27 03:53:23;;;;;;;40.17;24.40;;;3.50;99.90;;;;;;4905432;29;20211;-95
2022/01/27 03:55:49;;;;;;;40.37;24.13;;;3.50;99.90;;;;;;4903124;29;20174;-94
2022/01/27 03:58:17;;;;;;;42.20;25.40;;;3.50;99.90;;;;;;4902121;29;20203;-93
2022/01/27 04:00:50;;;;;;;44.23;25.60;;;3.50;99.90;;;;;;4904235;29;20178;-95
2022/01/27 04:03:18;;;;;;;41.70;25.03;;;3.50;99.90;;;;;;4904084;29;20191;-95
2022/01/27 04:06:22;;;;;;;45.10;26.93;;;3.50;99.90;;;;;;4903290;29;20186;-94
2022/01/27 04:09:06;;;;;;;46.80;26.97;;;3.50;99.90;;;;;;4904286;29;20205;-94
2022/01/27 04:11:32;;;;;;;48.43;28.33;;;3.50;99.90;;;;;;4902733;29;20227;-94
2022/01/27 04:14:03;;;;;;;47.40;28.17;;;3.50;99.90;;;;;;4903089;29;20203;-95
2022/01/27 04:16:32;;;;;;;55.73;29.30;;;3.50;99.90;;;;;;4903948;29;20174;-94
2022/01/27 04:18:58;;;;;;;51.17;28.10;;;3.50;99.90;;;;;;4903621;29;20203;-95
2022/01/27 04:21:25;;;;;;;53.67;30.60;;;3.50;99.90;;;;;;4904770;29;20231;-94
2022/01/27 04:23:51;;;;;;;50.20;29.97;;;3.50;99.90;;;;;;4905709;29;20179;-95
2022/01/27 04:26:33;;;;;;;51.30;29.30;;;3.40;99.90;;;;;;4904823;29;20175;-94
2022/01/27 04:28:59;;;;;;;51.80;30.27;;;3.50;99.90;;;;;;4905292;29;20254;-96
2022/01/27 04:31:29;;;;;;;52.87;30.47;;;3.50;99.90;;;;;;4903856;29;20180;-95
2022/01/27 04:34:00;;;;;;;55.60;29.90;;;3.50;99.90;;;;;;4904329;29;20179;-95
2022/01/27 04:36:35;;;;;;;51.70;29.43;;;3.50;99.90;;;;;;4905303;29;20343;-95
2022/01/27 04:39:25;;;;;;;54.30;29.67;;;3.50;99.90;;;;;;4904710;29;20206;-95
2022/01/27 04:42:32;;;;;;;53.33;29.93;;;3.50;99.90;;;;;;4904589;29;20274;-95
2022/01/27 04:45:02;;;;;;;52.70;27.67;;;3.50;99.90;;;;;;4904283;29;20179;-94
2022/01/27 04:47:46;;;;;;;51.60;28.83;;;3.40;99.90;;;;;;4904439;29;20207;-94
2022/01/27 04:50:14;;;;;;;50.67;29.43;;;3.40;99.90;;;;;;4902248;29;20179;-94
2022/01/27 04:52:44;;;;;;;50.93;29.77;;;3.40;99.90;;;;;;4903804;29;20374;-94
2022/01/27 04:55:14;;;;;;;48.83;28.17;;;3.40;99.90;;;;;;4903786;29;20230;-94
2022/01/27 04:57:44;;;;;;;52.33;29.50;;;3.40;99.90;;;;;;4902693;29;20210;-94
2022/01/27 05:00:13;;;;;;;51.07;29.90;;;3.40;99.90;;;;;;4902818;29;20647;-94
2022/01/27 05:02:58;;;;;;;50.33;28.77;;;3.30;99.90;;;;;;4903485;29;20183;-95
2022/01/27 05:05:27;;;;;;;46.60;28.40;;;3.30;99.90;;;;;;4902704;29;20179;-94
2022/01/27 05:07:59;;;;;;;51.57;30.23;;;3.40;99.90;;;;;;4902655;29;20219;-94
2022/01/27 05:10:32;;;;;;;53.13;30.20;;;3.30;99.90;;;;;;4902055;29;20215;-95
2022/01/27 05:13:07;;;;;;;52.80;30.27;;;3.30;99.90;;;;;;4902361;29;20203;-94
2022/01/27 05:15:45;;;;;;;54.17;29.30;;;3.30;99.90;;;;;;4901685;29;20175;-95
2022/01/27 05:18:12;;;;;;;45.63;28.37;;;3.30;99.90;;;;;;4902131;29;20214;-94
2022/01/27 05:20:49;;;;;;;53.03;30.63;;;3.30;99.90;;;;;;4902504;29;20171;-95
2022/01/27 05:23:15;;;;;;;52.17;30.53;;;3.30;99.90;;;;;;4901462;29;20171;-95
2022/01/27 05:25:41;;;;;;;48.40;28.97;;;3.20;99.90;;;;;;4903006;29;20589;-94
2022/01/27 05:28:22;;;;;;;52.13;30.67;;;3.30;99.90;;;;;;4903049;29;20207;-95
2022/01/27 05:30:52;;;;;;;47.13;28.67;;;3.30;99.90;;;;;;4902571;29;20179;-94
2022/01/27 05:33:19;;;;;;;48.53;29.07;;;3.20;99.90;;;;;;4902663;29;20199;-94
2022/01/27 05:35:50;;;;;;;53.53;29.63;;;3.20;99.90;;;;;;4901560;29;20318;-93
2022/01/27 05:38:17;;;;;;;53.57;30.60;;;3.20;99.90;;;;;;4901620;29;20281;-93
2022/01/27 05:40:52;;;;;;;50.27;28.90;;;3.20;99.90;;;;;;4902267;29;20178;-94
2022/01/27 05:43:19;;;;;;;51.90;29.97;;;3.20;99.90;;;;;;4902181;29;20254;-93
2022/01/27 05:45:47;;;;;;;50.57;30.03;;;3.20;99.90;;;;;;4902224;29;20172;-95
2022/01/27 05:48:16;;;;;;;52.30;29.37;;;3.20;99.90;;;;;;4900683;29;20207;-94
2022/01/27 05:50:42;;;;;;;46.70;28.20;;;3.10;99.90;;;;;;4902287;29;20179;-94
2022/01/27 05:53:08;;;;;;;46.83;27.60;;;3.10;99.90;;;;;;4902374;29;20293;-94
2022/01/27 05:55:35;;;;;;;46.50;27.97;;;3.10;99.90;;;;;;4903964;29;20266;-95
2022/01/27 05:58:04;;;;;;;47.73;26.13;;;3.20;99.90;;;;;;4905365;29;20207;-95
2022/01/27 06:00:32;;;;;;;44.17;27.57;;;3.10;99.90;;;;;;4906827;29;20175;-94
2022/01/27 06:02:58;;;;;;;45.47;27.27;;;3.10;99.90;;;;;;4906007;29;20187;-94
2022/01/27 06:05:27;;;;;;;43.73;26.83;;;3.20;99.90;;;;;;4905666;29;20172;-94
2022/01/27 06:07:54;;;;;;;45.40;26.27;;;3.10;99.90;;;;;;4905612;29;20211;-95
2022/01/27 06:10:20;;;;;;;48.40;26.93;;;3.10;99.90;;;;;;4905443;29;20171;-95
2022/01/27 06:12:56;;;;;;;46.43;26.83;;;3.10;99.90;;;;;;4904992;29;20207;-95
2022/01/27 06:15:30;;;;;;;43.30;24.87;;;3.10;99.90;;;;;;4906063;29;20173;-94
2022/01/27 06:17:58;;;;;;;44.27;25.70;;;3.20;99.90;;;;;;4905162;29;20207;-96
2022/01/27 06:20:32;;;;;;;48.63;25.67;;;3.20;99.90;;;;;;4904954;29;20167;-95
2022/01/27 06:23:09;;;;;;;43.13;24.90;;;3.10;99.90;;;;;;4903909;29;20231;-93
2022/01/27 06:25:35;;;;;;;41.83;24.57;;;3.10;99.90;;;;;;4903291;29;20265;-93
2022/01/27 06:28:08;;;;;;;46.70;26.83;;;3.10;99.90;;;;;;4902544;29;20207;-92
2022/01/27 06:30:40;;;;;;;44.17;25.63;;;3.20;99.90;;;;;;4903615;29;20186;-93
2022/01/27 06:33:07;;;;;;;49.60;25.97;;;3.20;99.90;;;;;;4902891;29;20207;-93
2022/01/27 06:35:40;;;;;;;49.33;26.27;;;3.10;99.90;;;;;;4900434;29;20298;-95
2022/01/27 06:38:09;;;;;;;44.13;24.53;;;3.10;99.90;;;;;;4903038;29;20255;-94
2022/01/27 06:40:35;;;;;;;49.27;26.53;;;3.10;99.90;;;;;;4902282;29;20198;-93
2022/01/27 06:43:02;;;;;;;49.43;26.70;;;3.10;99.90;;;;;;4902797;29;20191;-94
2022/01/27 06:45:30;;;;;;;48.70;27.87;;;3.10;99.90;;;;;;4902167;29;20242;-94
2022/01/27 06:48:02;;;;;;;53.50;28.57;;;3.10;99.90;;;;;;4902253;29;20237;-94
2022/01/27 06:53:15;;;;;;;52.70;29.07;;;3.00;99.90;;;;;;4902684;29;20194;-95
2022/01/27 06:59:20;;;;;;;52.13;27.87;;;2.90;99.90;;;;;;4902070;29;20613;-94
2022/01/27 07:05:20;;;;;;;50.63;27.57;;;3.00;99.90;;;;;;4901850;29;20179;-95
2022/01/27 07:07:53;;;;;;;45.17;25.47;;;3.00;99.90;;;;;;4899593;29;20226;-95
2022/01/27 07:10:37;;;;;;;48.87;27.07;;;3.00;99.90;;;;;;4900653;29;20183;-94
2022/01/27 07:13:04;;;;;;;48.77;26.67;;;3.00;99.90;;;;;;4900401;29;20565;-95
2022/01/27 07:15:52;;;;;;;47.80;26.43;;;3.00;99.90;;;;;;4900297;29;20179;-94
2022/01/27 07:18:18;;;;;;;52.40;27.43;;;3.00;99.90;;;;;;4900249;29;20202;-94
2022/01/27 07:20:45;;;;;;;50.40;27.37;;;3.00;99.90;;;;;;4900436;29;20175;-94
2022/01/27 07:23:30;;;;;;;45.20;25.93;;;3.00;99.90;;;;;;4900182;29;20187;-96
2022/01/27 07:26:07;;;;;;;54.60;28.10;;;3.00;99.90;;;;;;4900759;29;20182;-94
2022/01/27 07:28:42;;;;;;;47.60;25.60;;;3.00;99.90;;;;;;4900331;29;20630;-94
2022/01/27 07:31:17;;;;;;;51.20;26.67;;;3.00;99.90;;;;;;4900520;29;20175;-95
2022/01/27 07:33:52;;;;;;;53.47;27.23;;;3.00;99.90;;;;;;4900609;29;20209;-95
2022/01/27 07:36:28;;;;;;;50.40;27.40;;;3.00;99.90;;;;;;4897216;29;20223;-94
2022/01/27 07:38:55;;;;;;;53.20;27.20;;;3.00;99.90;;;;;;4899881;29;20306;-94
2022/01/27 07:41:22;;;;;;;53.07;26.47;;;3.00;99.90;;;;;;4899352;29;20225;-95
2022/01/27 07:43:48;;;;;;;48.77;26.57;;;3.00;99.90;;;;;;4899586;29;20215;-95
2022/01/27 07:46:16;;;;;;;56.10;26.53;;;3.00;99.90;;;;;;4900132;29;20168;-95
2022/01/27 07:48:42;;;;;;;56.93;28.87;;;3.00;99.90;;;;;;4899820;29;20200;-93
2022/01/27 07:51:44;;;;;;;48.87;26.50;;;3.00;99.90;;;;;;4899590;29;20180;-94
2022/01/27 07:54:17;;;;;;;52.20;26.57;;;3.00;99.90;;;;;;4902677;29;20714;-95
2022/01/27 07:56:50;;;;;;;62.37;29.77;;;3.00;99.90;;;;;;4904599;29;20179;-95
2022/01/27 07:59:16;;;;;;;52.30;27.20;;;3.00;99.90;;;;;;4900624;29;20250;-94
2022/01/27 08:01:48;;;;;;;48.93;26.93;;;3.00;99.90;;;;;;4899978;29;20175;-94
2022/01/27 08:04:44;;;;;;;55.80;28.70;;;3.00;99.90;;;;;;4899676;29;20176;-95
2022/01/27 08:07:13;;;;;;;52.70;28.37;;;2.90;99.90;;;;;;4899615;29;20211;-95
2022/01/27 08:09:40;;;;;;;57.30;28.93;;;3.00;99.90;;;;;;4899436;29;20624;-94
2022/01/27 08:12:15;;;;;;;53.33;29.43;;;2.90;99.90;;;;;;4898932;29;20203;-95
2022/01/27 08:15:01;;;;;;;60.83;28.83;;;2.90;99.90;;;;;;4899430;29;20255;-93
2022/01/27 08:17:30;;;;;;;54.33;27.63;;;3.00;99.90;;;;;;4899501;29;20206;-95
2022/01/27 08:20:02;;;;;;;58.23;29.03;;;3.00;99.90;;;;;;4903207;29;20172;-95
2022/01/27 08:22:47;;;;;;;50.40;27.23;;;3.00;99.90;;;;;;4899103;29;20274;-94
2022/01/27 08:25:32;;;;;;;56.87;28.33;;;3.00;99.90;;;;;;4900705;29;20192;-94
2022/01/27 08:28:02;;;;;;;58.00;28.70;;;3.00;99.90;;;;;;4899232;29;20237;-93
2022/01/27 08:30:37;;;;;;;58.13;28.43;;;3.00;99.90;;;;;;4899189;29;20183;-95
2022/01/27 08:33:13;;;;;;;56.27;29.07;;;3.00;99.90;;;;;;4898824;29;20243;-94
2022/01/27 08:35:39;;;;;;;63.63;31.30;;;3.00;99.90;;;;;;4896991;29;20179;-94
2022/01/27 08:38:15;;;;;;;62.70;29.57;;;3.10;99.90;;;;;;4899285;29;20223;-95
2022/01/27 08:41:03;;;;;;;61.73;29.57;;;3.00;99.90;;;;;;4898829;29;20183;-94
2022/01/27 08:43:35;;;;;;;60.60;28.53;;;3.10;99.90;;;;;;4899505;29;20266;-95
2022/01/27 08:46:01;;;;;;;61.13;29.97;;;3.10;99.90;;;;;;4899180;29;20279;-96
2022/01/27 08:48:35;;;;;;;60.27;30.87;;;3.10;99.90;;;;;;4899746;29;20210;-94
2022/01/27 08:51:05;;;;;;;63.67;30.43;;;3.10;99.90;;;;;;4899600;29;20187;-93
2022/01/27 08:53:41;;;;;;;63.70;30.13;;;3.20;99.90;;;;;;4899405;29;20233;-95
2022/01/27 08:56:13;;;;;;;60.40;30.67;;;3.20;99.90;;;;;;4899438;29;20167;-95
2022/01/27 08:58:40;;;;;;;59.63;30.03;;;3.20;99.90;;;;;;4899049;29;20668;-94
2022/01/27 09:01:07;;;;;;;55.93;28.80;;;3.20;99.90;;;;;;4898369;29;20636;-95
2022/01/27 09:03:39;;;;;;;63.00;31.07;;;3.30;99.90;;;;;;4898786;29;20198;-94
2022/01/27 09:06:07;;;;;;;62.93;27.53;;;3.30;99.90;;;;;;4899251;29;20168;-94
2022/01/27 09:08:43;;;;;;;60.73;30.43;;;3.30;99.90;;;;;;4898829;29;20211;-94
2022/01/27 09:11:18;;;;;;;57.87;29.57;;;3.30;99.90;;;;;;4898554;29;20230;-96
2022/01/27 09:13:58;;;;;;;59.63;28.27;;;3.30;99.90;;;;;;4898645;29;20202;-94
2022/01/27 09:16:35;;;;;;;61.30;28.43;;;3.40;99.90;;;;;;4898820;29;20726;-95
2022/01/27 09:19:10;;;;;;;59.27;30.03;;;3.40;99.90;;;;;;4898677;29;20206;-95
2022/01/27 09:21:50;;;;;;;57.13;28.37;;;3.40;99.90;;;;;;4898513;29;20167;-94
2022/01/27 09:24:28;;;;;;;55.57;27.13;;;3.50;99.90;;;;;;4899118;29;20195;-94
2022/01/27 09:27:03;;;;;;;67.20;27.93;;;3.50;99.90;;;;;;4898463;29;20258;-95
2022/01/27 09:29:48;;;;;;;48.93;25.67;;;3.60;99.90;;;;;;4890244;29;20337;-94
2022/01/27 09:32:17;;;;;;;55.30;25.27;;;3.60;99.90;;;;;;4902215;29;20207;-93
2022/01/27 09:34:54;;;;;;;54.03;25.47;;;3.60;99.90;;;;;;4902438;29;20183;-95
2022/01/27 09:37:22;;;;;;;46.63;25.67;;;3.60;99.90;;;;;;4899190;29;20329;-94
2022/01/27 09:40:06;;;;;;;51.87;25.87;;;3.60;99.90;;;;;;4902615;29;20183;-95
2022/01/27 09:42:37;;;;;;;43.50;23.63;;;3.60;99.90;;;;;;4902681;29;20183;-95
2022/01/27 09:45:10;;;;;;;46.37;24.57;;;3.70;99.90;;;;;;4902650;29;20239;-95
2022/01/27 09:48:14;;;;;;;44.63;23.00;;;3.70;99.90;;;;;;4903179;29;20207;-94
2022/01/27 09:54:04;;;;;;;40.50;21.63;;;3.80;99.90;;;;;;4903467;29;20199;-94
2022/01/27 09:56:49;;;;;;;42.43;20.93;;;3.80;99.90;;;;;;4901723;29;20644;-95
2022/01/27 09:59:42;;;;;;;44.60;20.97;;;3.70;99.90;;;;;;4903669;29;20195;-96
2022/01/27 10:05:01;;;;;;;32.37;18.83;;;3.80;99.90;;;;;;4904013;29;20215;-93
2022/01/27 10:07:42;;;;;;;33.47;18.33;;;3.80;99.90;;;;;;4902235;29;20207;-96
2022/01/27 10:10:17;;;;;;;36.80;18.43;;;3.80;99.90;;;;;;4902064;29;20235;-95
2022/01/27 10:12:57;;;;;;;29.73;17.33;;;3.90;99.90;;;;;;4902250;29;20210;-93
2022/01/27 10:15:24;;;;;;;33.03;18.17;;;3.90;99.90;;;;;;4902397;29;20183;-94
2022/01/27 10:18:11;;;;;;;33.90;17.07;;;3.90;99.90;;;;;;4902217;29;20211;-96
2022/01/27 10:20:39;;;;;;;27.17;16.83;;;4.00;99.90;;;;;;4900813;29;20207;-93
2022/01/27 10:23:32;;;;;;;29.33;16.17;;;4.00;99.90;;;;;;4901222;29;20194;-93
2022/01/27 10:26:14;;;;;;;27.90;15.93;;;4.00;99.90;;;;;;4903262;29;20195;-95
2022/01/27 10:28:59;;;;;;;28.43;16.07;;;4.00;99.90;;;;;;4902860;29;20236;-93
2022/01/27 10:31:26;;;;;;;24.33;15.17;;;4.00;99.90;;;;;;4901562;29;20193;-93
2022/01/27 10:34:10;;;;;;;25.97;15.40;;;4.10;99.90;;;;;;4902017;29;20207;-96
2022/01/27 10:36:45;;;;;;;24.83;14.53;;;4.10;99.90;;;;;;4901130;29;20226;-92
2022/01/27 10:39:16;;;;;;;23.27;13.70;;;4.10;99.90;;;;;;4901437;29;20202;-95
2022/01/27 10:42:08;;;;;;;24.33;14.77;;;4.10;99.90;;;;;;4901297;29;20211;-93
2022/01/27 10:44:44;;;;;;;19.67;13.10;;;4.10;99.90;;;;;;4901541;29;20227;-95
2022/01/27 10:47:44;;;;;;;21.43;13.53;;;4.10;99.90;;;;;;4901164;29;20215;-94
2022/01/27 10:50:11;;;;;;;19.80;12.50;;;4.20;99.90;;;;;;4901561;29;20207;-93
2022/01/27 10:52:57;;;;;;;21.90;13.60;;;4.20;99.90;;;;;;4901276;29;20306;-94
2022/01/27 10:55:37;;;;;;;19.97;12.50;;;4.20;99.90;;;;;;4902524;29;20168;-92
2022/01/27 10:58:41;;;;;;;21.50;12.63;;;4.20;99.90;;;;;;4900726;29;20347;-94
2022/01/27 11:01:41;;;;;;;17.40;11.83;;;4.30;99.90;;;;;;4828810;29;20221;-94
2022/01/27 11:04:12;;;;;;;19.33;11.33;;;4.30;99.90;;;;;;4829712;29;20197;-94
2022/01/27 11:07:01;;;;;;;18.47;11.60;;;4.30;99.90;;;;;;4829668;29;20181;-95
2022/01/27 11:09:42;;;;;;;16.73;10.90;;;4.30;99.90;;;;;;4829139;29;20278;-95
2022/01/27 11:12:17;;;;;;;15.63;10.73;;;4.40;99.90;;;;;;4900800;29;20233;-94
2022/01/27 11:15:06;;;;;;;16.13;10.27;;;4.40;99.90;;;;;;4900850;29;20175;-95
2022/01/27 11:17:38;;;;;;;14.73;10.17;;;4.40;99.90;;;;;;4900382;29;20200;-95
2022/01/27 11:25:51;;;;;;;15.63;10.67;;;4.40;99.90;;;;;;4901330;29;20258;-95
2022/01/27 11:28:21;;;;;;;15.07;10.10;;;4.50;99.90;;;;;;4899912;29;20209;-93
2022/01/27 11:31:21;;;;;;;15.13;10.63;;;4.50;99.90;;;;;;4900089;29;20179;-94
2022/01/27 11:34:10;;;;;;;13.90;9.70;;;4.50;99.90;;;;;;4900153;29;20290;-94
2022/01/27 11:37:10;;;;;;;15.90;10.97;;;4.60;99.90;;;;;;4896361;29;20215;-93
2022/01/27 11:40:08;;;;;;;15.03;10.83;;;4.50;99.90;;;;;;4900042;29;20240;-95
2022/01/27 11:42:58;;;;;;;16.37;11.00;;;4.60;99.90;;;;;;4900143;29;20220;-94
2022/01/27 11:45:53;;;;;;;16.30;11.43;;;4.60;99.90;;;;;;4899943;29;20504;-94
2022/01/27 11:48:37;;;;;;;17.53;11.40;;;4.60;99.90;;;;;;4899831;29;20210;-95
2022/01/27 11:54:46;;;;;;;17.63;11.73;;;4.60;99.90;;;;;;4900538;29;20227;-94
2022/01/27 11:57:46;;;;;;;19.93;12.23;;;4.70;99.90;;;;;;4900016;29;20213;-96
2022/01/27 12:00:34;;;;;;;19.53;12.67;;;4.70;99.90;;;;;;4900115;29;20647;-95
2022/01/27 12:03:03;;;;;;;21.97;13.27;;;4.70;99.90;;;;;;4899766;29;20639;-94
2022/01/27 12:05:30;;;;;;;21.63;13.43;;;4.70;99.90;;;;;;4900021;29;20191;-94
2022/01/27 12:08:25;;;;;;;20.87;12.67;;;4.80;99.90;;;;;;4899344;29;20307;-95
2022/01/27 12:11:08;;;;;;;21.20;13.07;;;4.80;99.90;;;;;;4899462;29;20671;-94
2022/01/27 12:14:01;;;;;;;19.03;12.47;;;4.90;99.90;;;;;;4899668;29;20203;-93
2022/01/27 12:19:42;;;;;;;19.53;13.03;;;4.90;99.90;;;;;;4900243;29;20238;-95
2022/01/27 12:22:29;;;;;;;21.93;13.63;;;5.00;99.90;;;;;;4898968;29;20269;-94
2022/01/27 12:25:03;;;;;;;20.07;12.47;;;5.00;99.90;;;;;;4899445;29;20286;-95
2022/01/27 12:27:30;;;;;;;18.07;11.80;;;5.10;99.90;;;;;;4899155;29;20260;-93
2022/01/27 12:30:13;;;;;;;16.13;12.00;;;5.20;99.90;;;;;;4899236;29;20203;-94
2022/01/27 12:33:05;;;;;;;19.90;11.70;;;5.20;99.90;;;;;;4901186;29;20207;-94
2022/01/27 12:35:52;;;;;;;16.13;11.50;;;5.20;99.90;;;;;;4898597;29;20180;-95
2022/01/27 12:38:18;;;;;;;16.80;11.60;;;5.20;99.90;;;;;;4898249;29;20227;-94
2022/01/27 12:40:54;;;;;;;18.60;11.40;;;5.20;99.90;;;;;;4898806;29;20627;-95
2022/01/27 12:43:30;;;;;;;17.33;10.87;;;5.20;99.90;;;;;;4898756;29;20265;-95
2022/01/27 12:46:21;;;;;;;17.87;11.77;;;5.20;99.90;;;;;;4898533;29;20193;-95
2022/01/27 12:49:43;;;;;;;16.93;10.70;;;5.20;99.90;;;;;;4898342;29;20207;-94
2022/01/27 12:52:27;;;;;;;16.10;11.87;;;5.30;99.90;;;;;;4898142;29;20202;-94
2022/01/27 12:55:25;;;;;;;17.90;11.33;;;5.30;99.90;;;;;;4899019;29;20175;-94
2022/01/27 12:58:07;;;;;;;16.93;11.70;;;5.30;99.90;;;;;;4898279;29;20227;-93
2022/01/27 13:00:44;;;;;;;19.60;12.50;;;5.30;99.90;;;;;;4898708;29;20199;-93
2022/01/27 13:03:29;;;;;;;21.40;13.73;;;5.30;99.90;;;;;;4898526;29;20175;-94
2022/01/27 13:06:06;;;;;;;21.60;13.20;;;5.30;99.90;;;;;;4897914;29;20182;-95
2022/01/27 13:08:45;;;;;;;21.03;12.60;;;5.30;99.90;;;;;;4898216;29;20206;-93
2022/01/27 13:11:13;;;;;;;20.30;12.70;;;5.30;99.90;;;;;;4898188;29;20185;-94
2022/01/27 13:13:43;;;;;;;19.40;12.80;;;5.40;99.90;;;;;;4901803;29;20241;-94
2022/01/27 13:16:24;;;;;;;22.20;13.13;;;5.40;99.90;;;;;;4917365;29;20175;-95
2022/01/27 13:19:07;;;;;;;17.90;12.63;;;5.50;99.90;;;;;;4917644;29;20198;-94
2022/01/27 13:22:17;;;;;;;18.67;11.80;;;5.60;99.90;;;;;;4917785;29;20197;-93
2022/01/27 13:25:01;;;;;;;19.30;12.43;;;5.60;99.90;;;;;;4917729;29;20190;-95
2022/01/27 13:27:35;;;;;;;19.20;12.33;;;5.60;99.90;;;;;;4917239;29;20203;-94
2022/01/27 13:30:07;;;;;;;19.53;11.90;;;5.60;99.90;;;;;;4917557;29;20187;-94
2022/01/27 13:32:47;;;;;;;20.17;11.70;;;5.60;99.90;;;;;;4917208;29;20210;-94
2022/01/27 13:35:28;;;;;;;19.33;12.00;;;5.70;99.90;;;;;;4918157;29;20258;-94
2022/01/27 13:38:29;;;;;;;16.70;11.60;;;5.80;99.90;;;;;;4916312;29;20246;-95
2022/01/27 13:44:10;;;;;;;16.77;10.23;;;6.10;99.90;;;;;;4918473;29;20645;-95
2022/01/27 13:46:48;;;;;;;18.67;11.17;;;6.10;99.90;;;;;;4917255;29;20171;-92
2022/01/27 13:49:31;;;;;;;18.93;11.57;;;6.10;99.90;;;;;;4916738;29;20170;-94
2022/01/27 13:52:12;;;;;;;23.53;12.17;;;6.10;99.90;;;;;;4917488;29;20218;-95
2022/01/27 13:54:53;;;;;;;17.73;10.90;;;6.10;99.90;;;;;;4917395;29;20197;-95
2022/01/27 13:57:46;;;;;;;17.73;11.20;;;6.10;99.90;;;;;;4916941;29;20289;-95
2022/01/27 14:01:13;;;;;;;18.30;10.97;;;6.10;99.90;;;;;;4916585;29;20167;-94
2022/01/27 14:03:57;;;;;;;18.83;11.07;;;6.10;99.90;;;;;;4916740;29;20261;-94
2022/01/27 14:07:00;;;;;;;22.63;10.40;;;6.20;99.90;;;;;;4916618;29;20175;-94
2022/01/27 14:09:51;;;;;;;17.63;10.43;;;6.20;99.90;;;;;;4916907;29;20623;-94
2022/01/27 14:13:01;;;;;;;15.67;10.20;;;6.30;99.90;;;;;;4916673;29;20194;-95
2022/01/27 14:16:34;;;;;;;17.83;9.87;;;6.30;99.90;;;;;;4916851;29;20190;-92
2022/01/27 14:19:16;;;;;;;16.97;8.83;;;6.30;99.90;;;;;;4866055;29;20260;-93
2022/01/27 14:21:49;;;;;;;18.37;9.30;;;6.40;99.90;;;;;;4866273;29;20204;-94
2022/01/27 14:25:05;;;;;;;15.23;8.63;;;6.40;99.90;;;;;;4909808;29;20198;-94
2022/01/27 14:27:46;;;;;;;17.47;8.70;;;6.50;99.90;;;;;;4919948;29;20202;-93
2022/01/27 14:30:30;;;;;;;15.77;8.83;;;6.50;99.90;;;;;;4920025;29;20265;-94
2022/01/27 14:36:17;;;;;;;14.57;8.87;;;6.50;99.90;;;;;;4921203;29;20638;-95
2022/01/27 14:38:51;;;;;;;16.13;9.17;;;6.50;99.90;;;;;;4913600;29;20238;-94
2022/01/27 14:41:20;;;;;;;17.00;9.13;;;6.50;99.90;;;;;;4919817;29;20221;-95
2022/01/27 14:44:15;;;;;;;16.70;9.30;;;6.50;99.90;;;;;;4919277;29;20174;-94
2022/01/27 14:46:48;;;;;;;16.43;9.93;;;6.50;99.90;;;;;;4919567;29;20185;-94
2022/01/27 14:49:14;;;;;;;14.70;10.10;;;6.50;99.90;;;;;;4919715;29;20175;-95
2022/01/27 14:51:46;;;;;;;20.73;8.90;;;6.60;99.90;;;;;;4919306;29;20643;-93